Flight Track Log - Related Links

Times and Time Zones

All times are in EDT time to prevent confusion due to time zone crossing. See the SKW5378 flight status page for this flight to view local times or setup timezone preferences in your user account.

Time Position Orientation Groundspeed Altitude Reporting Facility
EDT Latitude Longitude Course Direction KTS MPH feet Rate Location/Type
Fri 10:20:14 PM 41.9333 -87.9167 166° South 156 180 1,800  Level Chicago TRACON
Fri 10:21:14 PM 41.8833 -87.9000 166° South 186 214 4,000 2,500 Climbing Chicago TRACON
Fri 10:22:14 PM 41.8333 -87.8833 166° South 245 282 6,800 2,368 Climbing Chicago TRACON
Fri 10:22:30 PM 41.8219 -87.8914 208° Southwest 227 261 7,000 2,154 Climbing Chicago Center
Fri 10:23:32 PM 41.7506 -87.8800 173° South 255 293 9,600 2,878 Climbing Chicago Center
Fri 10:24:33 PM 41.6511 -87.8697 176° South 299 344 12,900 2,902 Climbing Chicago Center
Fri 10:25:34 PM 41.5669 -87.8581 174° South 303 349 15,500 2,244 Climbing Chicago Center
Fri 10:26:36 PM 41.4772 -87.8442 173° South 319 367 17,500 1,463 Climbing Chicago Center
Fri 10:27:37 PM 41.3817 -87.8481 182° South 343 395 18,500 1,122 Climbing Chicago Center
Fri 10:28:39 PM 41.2797 -87.8739 191° South 363 418 19,800 1,122 Climbing Chicago Center
Fri 10:29:40 PM 41.1728 -87.9008 191° South 383 441 20,800 984 Climbing Chicago Center
Fri 10:30:41 PM 41.0608 -87.9264 190° South 407 468 21,800 1,024 Climbing Chicago Center
Fri 10:31:43 PM 40.9456 -87.9506 189° South 417 480 22,900 1,024 Climbing Chicago Center
Fri 10:32:44 PM 40.8292 -87.9767 190° South 423 487 23,900 976 Climbing Chicago Center
Fri 10:33:46 PM 40.7122 -88.0028 190° South 427 491 24,900 1,024 Climbing Chicago Center
Fri 10:34:47 PM 40.5708 -88.0344 190° South 431 496 26,000 541 Climbing Chicago Center
Fri 10:35:48 PM 40.4508 -88.0606 189° South 435 501 26,000  Level Chicago Center
Fri 10:36:50 PM 40.3286 -88.0881 190° South 446 513 26,000  Level Chicago Center
Fri 10:37:51 PM 40.2069 -88.1150 190° South 445 512 26,000  Level Chicago Center
Fri 10:38:52 PM 40.0783 -88.1436 190° South 442 509 26,000  Level Chicago Center
Fri 10:39:54 PM 39.9547 -88.1692 189° South 438 504 26,000  Level Chicago Center
Fri 10:40:55 PM 39.8322 -88.1961 190° South 443 510 26,000  Level Chicago Center
Fri 10:41:29 PM 39.7731 -88.2094 190° South 441 507 26,000 -695 Level Indianapolis Center
Fri 10:42:30 PM 39.6478 -88.2369 190° South 448 516 24,900 -984 Descending Indianapolis Center
Fri 10:43:31 PM 39.5214 -88.2639 189° South 456 525 24,000 -1,279 Descending Indianapolis Center
Fri 10:44:32 PM 39.3997 -88.2906 190° South 445 512 22,300 -992 Descending Indianapolis Center
Fri 10:45:32 PM 39.2756 -88.3178 190° South 438 504 22,000 -195 Descending Kansas City Center
Fri 10:46:35 PM 39.1583 -88.3419 189° South 427 491 21,900 -581 Descending Kansas City Center
Fri 10:47:36 PM 39.0392 -88.3675 189° South 432 497 20,800 -934 Descending Kansas City Center
Fri 10:48:37 PM 38.9308 -88.3906 189° South 409 471 20,000 -393 Descending Kansas City Center
Fri 10:49:38 PM 38.8225 -88.4122 189° South 398 458 20,000  Level Kansas City Center
Fri 10:50:39 PM 38.7144 -88.4356 190° South 394 453 20,000  Level Kansas City Center
Fri 10:51:37 PM 38.6072 -88.4567 189° South 392 451 20,000  Level Kansas City Center
Fri 10:52:40 PM 38.5003 -88.4789 189° South 390 449 20,000  Level Kansas City Center
Fri 10:53:41 PM 38.3742 -88.5053 189° South 385 443 20,000  Level Kansas City Center
Fri 10:54:40 PM 38.2686 -88.5272 189° South 384 442 20,000  Level Kansas City Center
Fri 10:55:43 PM 38.1639 -88.5494 189° South 382 440 20,000 -248 Level Kansas City Center
Fri 10:56:41 PM 38.0597 -88.5700 189° South 381 438 19,500 -1,082 Descending Kansas City Center
Fri 10:57:45 PM 37.9589 -88.5925 190° South 373 429 17,800 -1,548 Descending Kansas City Center
Fri 10:58:45 PM 37.8494 -88.6156 189° South 390 449 16,300 -1,488 Descending Kansas City Center
Fri 10:59:46 PM 37.7514 -88.6344 189° South 361 415 14,800 -1,463 Descending Kansas City Center
Fri 11:00:48 PM 37.6533 -88.6550 189° South 353 406 13,300 -1,458 Descending Kansas City Center
Fri 11:01:33 PM 37.5786 -88.6744 192° South 361 415 12,200 -1,486 Descending Memphis Center
Fri 11:02:33 PM 37.4875 -88.6947 190° South 353 406 10,700 -1,850 Descending Memphis Center
Fri 11:03:33 PM 37.4083 -88.7094 188° South 325 374 8,500 -2,500 Descending Memphis Center
Fri 11:04:33 PM 37.3378 -88.7264 191° South 295 339 5,700 -2,650 Descending Memphis Center
Fri 11:05:33 PM 37.2672 -88.7358 186° South 266 306 3,200 -1,400 Descending Memphis Center
Fri 11:06:33 PM 37.2047 -88.7475 188° South 246 283 2,900 -350 Descending Memphis Center
Fri 11:07:33 PM 37.1522 -88.7200 157° South 207 238 2,500 -400 Descending Memphis Center

Login

Don't have an account? Register now (free) for customized features, flight alerts, and more!